Time;durP1;ratioP1;P1;durP2;ratioP2;P2;SDS_P1;SDS_P2;PMS_P1;PMS_P2;Temp;Humidity;BMP_temperature;BMP_pressure;BME280_temperature;BME280_humidity;BME280_pressure;Samples;Min_cycle;Max_cycle;Signal;HPM_P1;HPM_P2
2021/08/04 00:02:03;;;;;;;4.97;3.13;;;;;;;18.09;98.61;97710.78;5050361;28;20160;-77
2021/08/04 00:04:28;;;;;;;4.05;3.00;;;;;;;18.13;98.57;97719.19;5048437;28;20102;-75
2021/08/04 00:06:53;;;;;;;10.00;2.58;;;;;;;18.09;98.87;97715.50;5049829;28;20104;-76
2021/08/04 00:09:19;;;;;;;5.28;3.03;;;;;;;18.04;98.64;97710.22;5050388;28;20366;-77
2021/08/04 00:11:44;;;;;;;4.85;3.35;;;;;;;18.05;98.90;97723.69;5050052;28;20029;-75
2021/08/04 00:14:10;;;;;;;6.65;3.58;;;;;;;18.12;99.05;97735.00;5049845;28;20033;-75
2021/08/04 00:16:36;;;;;;;6.15;3.80;;;;;;;18.23;98.25;97738.06;5048388;28;20389;-75
2021/08/04 00:19:02;;;;;;;6.25;3.42;;;;;;;18.17;98.60;97739.47;5048815;28;20120;-75
2021/08/04 00:21:27;;;;;;;6.82;3.22;;;;;;;18.13;99.85;97731.09;5048601;28;20043;-75
2021/08/04 00:23:53;;;;;;;6.07;3.15;;;;;;;18.07;100.00;97732.44;5049819;28;20449;-76
2021/08/04 00:26:18;;;;;;;5.53;3.38;;;;;;;17.95;100.00;97723.41;5049830;28;20032;-76
2021/08/04 00:28:44;;;;;;;7.40;3.28;;;;;;;17.94;100.00;97717.03;5049998;28;20029;-78
2021/08/04 00:31:09;;;;;;;6.65;2.90;;;;;;;18.19;100.00;97729.69;5049740;28;20136;-78
2021/08/04 00:33:35;;;;;;;5.93;2.75;;;;;;;18.28;99.86;97728.72;5048537;28;20033;-77
2021/08/04 00:36:00;;;;;;;3.38;2.28;;;;;;;18.27;99.73;97735.41;5048529;28;20090;-76
2021/08/04 00:38:26;;;;;;;4.97;3.35;;;;;;;18.24;100.00;97745.22;5049280;28;20033;-76
2021/08/04 00:40:51;;;;;;;4.65;2.78;;;;;;;18.19;100.00;97743.53;5051707;28;20036;-76
2021/08/04 00:43:17;;;;;;;4.97;3.63;;;;;;;18.10;100.00;97734.56;5053460;28;20473;-77
2021/08/04 00:45:42;;;;;;;7.30;2.58;;;;;;;18.07;100.00;97739.97;5052042;28;20067;-77
2021/08/04 00:48:08;;;;;;;6.93;3.10;;;;;;;18.07;100.00;97729.69;5051776;28;20056;-75
2021/08/04 00:50:34;;;;;;;3.65;2.83;;;;;;;18.08;100.00;97739.63;5051663;28;20044;-76
2021/08/04 00:53:00;;;;;;;18.90;6.85;;;;;;;18.07;100.00;97735.22;5053156;28;20029;-77
2021/08/04 00:55:27;;;;;;;9.13;5.28;;;;;;;18.24;100.00;97736.91;5053227;28;20082;-77
2021/08/04 00:57:53;;;;;;;8.32;4.85;;;;;;;18.38;100.00;97733.78;5053228;28;20401;-75
2021/08/04 01:00:18;;;;;;;8.48;4.90;;;;;;;18.24;100.00;97725.03;5053053;28;20029;-75
2021/08/04 01:02:50;;;;;;;7.60;4.35;;;;;;;18.17;100.00;97728.38;5052951;28;20029;-76
2021/08/04 01:05:31;;;;;;;7.65;5.05;;;;;;;18.08;100.00;97725.78;5052987;28;20121;-76
2021/08/04 01:08:12;;;;;;;13.65;4.57;;;;;;;17.98;100.00;97728.22;5051481;28;20469;-75
2021/08/04 01:10:47;;;;;;;8.55;4.22;;;;;;;17.95;100.00;97724.19;5051309;28;20500;-77
2021/08/04 01:13:34;;;;;;;6.72;3.78;;;;;;;17.90;100.00;97731.91;5052888;28;20512;-76
2021/08/04 01:16:21;;;;;;;7.03;4.40;;;;;;;17.89;100.00;97722.00;5052720;28;20108;-75
2021/08/04 01:19:03;;;;;;;10.48;5.30;;;;;;;17.82;100.00;97725.38;5052649;28;20033;-76
2021/08/04 01:21:39;;;;;;;6.47;4.57;;;;;;;17.93;100.00;97725.69;5052850;28;20029;-77
2021/08/04 01:24:32;;;;;;;12.88;5.47;;;;;;;17.89;100.00;97722.81;5051144;28;20485;-77
2021/08/04 01:26:59;;;;;;;7.97;4.80;;;;;;;17.77;100.00;97722.00;5052426;28;20029;-77
2021/08/04 01:29:25;;;;;;;7.10;4.45;;;;;;;17.71;100.00;97723.41;5052379;28;20125;-76
2021/08/04 01:31:56;;;;;;;7.90;4.95;;;;;;;17.67;100.00;97723.28;5052339;28;20394;-77
2021/08/04 01:34:22;;;;;;;6.53;4.90;;;;;;;17.57;100.00;97718.25;5052210;28;20418;-77
2021/08/04 01:36:50;;;;;;;9.48;5.22;;;;;;;17.60;100.00;97712.81;5052291;28;20052;-76
2021/08/04 01:39:18;;;;;;;10.70;5.32;;;;;;;17.58;100.00;97711.53;5052378;28;20024;-76
2021/08/04 01:41:45;;;;;;;7.05;4.45;;;;;;;17.59;100.00;97718.69;5051070;28;20037;-78
2021/08/04 01:44:12;;;;;;;7.65;5.13;;;;;;;17.71;100.00;97732.53;5053953;28;20059;-77
2021/08/04 01:46:38;;;;;;;5.63;3.80;;;;;;;17.79;100.00;97719.72;5055440;28;20025;-76
2021/08/04 01:49:04;;;;;;;7.43;4.10;;;;;;;17.86;100.00;97722.69;5052077;28;20493;-76
2021/08/04 01:51:31;;;;;;;6.43;4.63;;;;;;;17.91;100.00;97722.47;5049788;28;20057;-76
2021/08/04 01:53:57;;;;;;;8.60;5.30;;;;;;;18.06;100.00;97724.50;5051912;28;20033;-77
2021/08/04 01:56:24;;;;;;;8.25;4.65;;;;;;;18.01;100.00;97720.00;5051715;28;20032;-76
2021/08/04 01:58:50;;;;;;;5.03;3.80;;;;;;;17.92;100.00;97716.56;5050772;28;20029;-76
2021/08/04 02:01:16;;;;;;;4.25;3.85;;;;;;;17.83;100.00;97721.44;5051953;28;20036;-77
2021/08/04 02:03:41;;;;;;;5.32;2.95;;;;;;;17.68;100.00;97724.91;5051932;28;20005;-76
2021/08/04 02:06:16;;;;;;;6.43;3.50;;;;;;;17.60;100.00;97718.34;5050788;28;20036;-76
2021/08/04 02:08:50;;;;;;;5.45;3.63;;;;;;;17.58;100.00;97726.19;5049492;28;20539;-76
2021/08/04 02:11:23;;;;;;;5.18;3.03;;;;;;;17.60;100.00;97723.09;5051689;28;20036;-77
2021/08/04 02:14:24;;;;;;;8.98;4.05;;;;;;;17.46;100.00;97723.41;5047719;28;20381;-76
2021/08/04 02:17:16;;;;;;;4.47;3.63;;;;;;;17.57;100.00;97726.56;5046122;28;20405;-77
2021/08/04 02:20:21;;;;;;;4.47;3.53;;;;;;;17.51;100.00;97723.16;5043459;28;20116;-76
2021/08/04 02:23:02;;;;;;;4.90;4.00;;;;;;;17.43;100.00;97726.03;5051480;28;20427;-76
2021/08/04 02:25:39;;;;;;;5.25;3.88;;;;;;;17.49;100.00;97724.66;5051449;28;20107;-76
2021/08/04 02:28:08;;;;;;;5.65;4.07;;;;;;;17.43;100.00;97731.56;5051512;28;20036;-77
2021/08/04 02:30:34;;;;;;;7.85;4.68;;;;;;;17.46;100.00;97719.81;5051095;28;20091;-76
2021/08/04 02:33:01;;;;;;;7.07;4.40;;;;;;;17.46;100.00;97717.06;5051297;28;20071;-76
2021/08/04 02:35:27;;;;;;;8.52;4.28;;;;;;;17.62;100.00;97718.00;5051204;28;20036;-76
2021/08/04 02:37:52;;;;;;;8.55;4.50;;;;;;;17.51;100.00;97705.78;5051046;28;20029;-76
2021/08/04 02:40:18;;;;;;;9.23;4.65;;;;;;;17.52;100.00;97707.38;5051385;28;20017;-76
2021/08/04 02:42:45;;;;;;;5.63;4.40;;;;;;;17.55;100.00;97712.25;5051024;28;20481;-76
2021/08/04 02:45:12;;;;;;;5.85;3.90;;;;;;;17.44;100.00;97703.59;5051454;28;20518;-75
2021/08/04 02:47:38;;;;;;;9.60;4.53;;;;;;;17.47;100.00;97704.84;5051157;28;20036;-75
2021/08/04 02:50:07;;;;;;;7.75;3.92;;;;;;;17.63;100.00;97691.97;5051016;28;20024;-77
2021/08/04 02:52:35;;;;;;;7.53;4.22;;;;;;;17.56;100.00;97697.25;5050826;28;20079;-76
2021/08/04 02:55:01;;;;;;;5.70;3.88;;;;;;;17.49;100.00;97697.00;5049308;28;20507;-76
2021/08/04 02:57:27;;;;;;;8.43;4.30;;;;;;;17.60;100.00;97701.75;5051148;28;20029;-76
2021/08/04 02:59:52;;;;;;;4.97;4.32;;;;;;;17.60;100.00;97703.72;5051061;28;20047;-77
2021/08/04 03:02:18;;;;;;;5.90;4.10;;;;;;;17.50;100.00;97701.38;5050963;28;20027;-77
2021/08/04 03:04:44;;;;;;;6.07;3.47;;;;;;;17.48;100.00;97695.38;5050542;28;20033;-76
2021/08/04 03:07:09;;;;;;;4.10;3.67;;;;;;;17.60;100.00;97706.50;5050646;28;20021;-76
2021/08/04 03:09:35;;;;;;;10.77;4.40;;;;;;;17.52;100.00;97699.88;5050726;28;20021;-76
2021/08/04 03:12:00;;;;;;;4.90;3.90;;;;;;;17.68;100.00;97697.25;5050214;28;20045;-76
2021/08/04 03:14:26;;;;;;;4.68;3.72;;;;;;;17.60;100.00;97706.50;5050524;28;20032;-77
2021/08/04 03:16:51;;;;;;;6.25;3.33;;;;;;;17.65;100.00;97697.94;5049282;28;20021;-78
2021/08/04 03:19:17;;;;;;;8.43;3.70;;;;;;;17.81;100.00;97698.03;5050634;28;20032;-76
2021/08/04 03:21:42;;;;;;;8.65;4.13;;;;;;;17.60;100.00;97707.28;5049202;28;20036;-77
2021/08/04 03:24:08;;;;;;;5.72;4.05;;;;;;;17.44;100.00;97697.25;5048934;28;20024;-75
2021/08/04 03:26:34;;;;;;;4.57;3.95;;;;;;;17.46;100.00;97681.91;5050555;28;20040;-77
2021/08/04 03:29:00;;;;;;;7.45;4.15;;;;;;;17.63;100.00;97694.72;5049086;28;20029;-76
2021/08/04 03:31:25;;;;;;;6.68;4.07;;;;;;;17.47;100.00;97699.31;5050031;28;20451;-76
2021/08/04 03:33:51;;;;;;;5.43;3.72;;;;;;;17.52;100.00;97704.59;5050460;28;20047;-76
2021/08/04 03:36:16;;;;;;;6.85;5.22;;;;;;;17.58;100.00;97704.06;5050396;28;20029;-76
2021/08/04 03:38:42;;;;;;;8.05;3.45;;;;;;;17.38;100.00;97704.16;5048916;28;20115;-76
2021/08/04 03:41:08;;;;;;;6.57;3.80;;;;;;;17.27;100.00;97708.50;5050240;28;20029;-76
2021/08/04 03:43:36;;;;;;;3.70;3.30;;;;;;;17.28;100.00;97712.91;5049970;28;20408;-75
2021/08/04 03:46:02;;;;;;;5.25;3.75;;;;;;;17.35;100.00;97708.44;5050431;28;20033;-75
2021/08/04 03:48:29;;;;;;;5.32;3.67;;;;;;;17.37;100.00;97708.88;5050349;28;20021;-76
2021/08/04 03:50:54;;;;;;;7.07;3.53;;;;;;;17.38;100.00;97704.16;5050082;28;20484;-75
2021/08/04 03:53:20;;;;;;;4.93;3.35;;;;;;;17.29;100.00;97704.25;5050267;28;20036;-75
2021/08/04 03:55:45;;;;;;;6.60;4.07;;;;;;;17.25;100.00;97699.78;5050134;28;20028;-76
2021/08/04 03:58:11;;;;;;;5.03;3.25;;;;;;;17.35;100.00;97696.56;5048930;28;20021;-76
2021/08/04 04:00:36;;;;;;;4.35;3.28;;;;;;;17.39;100.00;97698.28;5050123;28;20082;-75
2021/08/04 04:03:02;;;;;;;7.07;4.60;;;;;;;17.25;100.00;97697.00;5048869;28;20388;-75
2021/08/04 04:05:27;;;;;;;6.88;3.45;;;;;;;17.39;100.00;97701.03;5048749;28;20032;-76
2021/08/04 04:07:52;;;;;;;7.45;4.07;;;;;;;17.24;100.00;97687.91;5049073;28;20120;-76
2021/08/04 04:10:18;;;;;;;11.10;4.18;;;;;;;17.37;100.00;97697.00;5050274;28;20569;-76
2021/08/04 04:12:44;;;;;;;9.65;4.03;;;;;;;17.50;100.00;97696.66;5049887;28;20025;-75
2021/08/04 04:15:09;;;;;;;8.43;4.53;;;;;;;17.28;100.00;97699.91;5050856;28;20390;-76
2021/08/04 04:17:35;;;;;;;13.45;5.47;;;;;;;17.09;100.00;97692.16;5053723;28;20490;-75
2021/08/04 04:20:01;;;;;;;8.57;3.67;;;;;;;17.09;100.00;97685.81;5053578;28;20048;-75
2021/08/04 04:22:26;;;;;;;9.02;4.32;;;;;;;17.03;100.00;97695.50;5054772;28;20171;-75
2021/08/04 04:24:51;;;;;;;11.43;4.20;;;;;;;16.91;100.00;97690.75;5053656;28;20059;-77
2021/08/04 04:27:17;;;;;;;9.48;3.78;;;;;;;16.89;100.00;97687.50;5053652;28;20047;-76
2021/08/04 04:29:42;;;;;;;10.20;4.07;;;;;;;16.98;100.00;97690.97;5052318;28;20024;-76
2021/08/04 04:32:09;;;;;;;8.18;3.65;;;;;;;16.95;100.00;97683.38;5053000;28;20052;-75
2021/08/04 04:34:37;;;;;;;10.60;3.80;;;;;;;16.97;100.00;97694.91;5053643;28;20108;-75
2021/08/04 04:37:03;;;;;;;7.00;4.10;;;;;;;16.95;100.00;97697.19;5052417;28;20499;-76
2021/08/04 04:39:29;;;;;;;5.28;3.97;;;;;;;17.10;100.00;97692.97;5053662;28;20021;-77
2021/08/04 04:41:54;;;;;;;5.25;4.40;;;;;;;17.07;100.00;97694.44;5053600;28;20052;-76
2021/08/04 04:44:20;;;;;;;5.50;3.30;;;;;;;16.97;100.00;97689.38;5051805;28;20146;-77
2021/08/04 04:46:45;;;;;;;7.13;4.18;;;;;;;16.86;100.00;97692.91;5053454;28;20017;-76
2021/08/04 04:49:10;;;;;;;6.82;3.30;;;;;;;16.86;100.00;97693.72;5053132;28;20009;-75
2021/08/04 04:51:36;;;;;;;8.95;4.28;;;;;;;16.92;100.00;97697.06;5053482;28;20143;-75
2021/08/04 04:54:02;;;;;;;4.88;2.97;;;;;;;16.90;100.00;97693.84;5051884;28;20021;-78
2021/08/04 04:56:28;;;;;;;6.07;3.40;;;;;;;16.96;100.00;97698.81;5053374;28;20025;-76
2021/08/04 04:58:54;;;;;;;11.93;4.47;;;;;;;17.07;100.00;97699.19;5052869;28;20056;-78
2021/08/04 05:01:20;;;;;;;7.18;3.33;;;;;;;16.98;100.00;97706.75;5051709;28;20029;-75
2021/08/04 05:03:46;;;;;;;4.32;3.03;;;;;;;17.16;100.00;97710.13;5051381;28;20542;-76
2021/08/04 05:06:11;;;;;;;3.40;2.67;;;;;;;17.21;100.00;97720.94;5052901;28;20139;-76
2021/08/04 05:08:37;;;;;;;4.03;2.83;;;;;;;17.06;100.00;97725.22;5051498;28;20104;-76
2021/08/04 05:11:04;;;;;;;4.90;3.00;;;;;;;16.94;100.00;97727.94;5051536;28;20078;-76
2021/08/04 05:13:29;;;;;;;5.55;2.78;;;;;;;16.90;100.00;97736.13;5051493;28;20122;-75
2021/08/04 05:15:55;;;;;;;5.13;3.17;;;;;;;16.93;100.00;97732.66;5052724;28;20491;-75
2021/08/04 05:18:20;;;;;;;4.78;2.95;;;;;;;16.82;100.00;97731.47;5051480;28;20033;-77
2021/08/04 05:20:46;;;;;;;7.35;2.75;;;;;;;16.73;100.00;97721.69;5052629;28;20013;-75
2021/08/04 05:23:11;;;;;;;6.68;3.58;;;;;;;16.74;100.00;97724.09;5051616;28;20029;-76
2021/08/04 05:25:38;;;;;;;3.30;3.00;;;;;;;16.68;100.00;97730.97;5052767;28;20032;-77
2021/08/04 05:28:04;;;;;;;7.97;3.63;;;;;;;16.77;100.00;97740.00;5051004;28;20020;-75
2021/08/04 05:30:29;;;;;;;4.72;3.45;;;;;;;16.82;100.00;97733.44;5052658;28;20191;-75
2021/08/04 05:32:55;;;;;;;4.80;2.65;;;;;;;17.17;100.00;97748.47;5052459;28;20478;-75
2021/08/04 05:35:20;;;;;;;10.23;3.75;;;;;;;17.21;100.00;97751.38;5051263;28;20428;-76
2021/08/04 05:37:46;;;;;;;6.95;3.78;;;;;;;17.22;100.00;97764.03;5052470;28;20112;-76
2021/08/04 05:40:12;;;;;;;6.47;2.80;;;;;;;17.27;100.00;97755.50;5052393;28;20027;-75
2021/08/04 05:42:37;;;;;;;8.55;3.10;;;;;;;17.31;100.00;97750.94;5052393;28;20040;-76
2021/08/04 05:45:03;;;;;;;7.38;4.07;;;;;;;17.26;100.00;97737.34;5052019;28;20429;-76
2021/08/04 05:47:28;;;;;;;5.63;3.30;;;;;;;17.35;99.95;97749.09;5052204;28;20554;-76
2021/08/04 05:49:54;;;;;;;5.90;2.83;;;;;;;17.42;99.85;97744.59;5052053;28;20090;-77
2021/08/04 05:52:19;;;;;;;6.22;3.05;;;;;;;17.46;99.85;97744.72;5052049;28;20033;-76
2021/08/04 05:54:45;;;;;;;4.03;3.00;;;;;;;17.51;99.54;97750.81;5051920;28;20103;-75
2021/08/04 05:57:10;;;;;;;5.70;3.30;;;;;;;17.48;100.00;97747.94;5052034;28;20091;-77
2021/08/04 05:59:35;;;;;;;4.82;2.88;;;;;;;17.63;99.43;97758.34;5050638;28;20025;-77
2021/08/04 06:02:01;;;;;;;8.35;5.10;;;;;;;17.71;98.82;97768.50;5051619;28;20067;-78
2021/08/04 06:04:28;;;;;;;9.52;4.28;;;;;;;17.59;99.41;97761.00;5051635;28;20037;-76
2021/08/04 06:06:53;;;;;;;11.70;5.25;;;;;;;17.66;99.38;97760.44;5052074;28;20024;-77
2021/08/04 06:09:18;;;;;;;4.25;3.47;;;;;;;17.72;99.92;97756.28;5050600;28;20112;-77
2021/08/04 06:11:44;;;;;;;6.75;3.70;;;;;;;17.70;99.43;97755.78;5052337;28;20128;-77
2021/08/04 06:14:09;;;;;;;6.45;3.40;;;;;;;17.78;98.86;97770.69;5051257;28;20044;-76
2021/08/04 06:16:35;;;;;;;5.65;4.18;;;;;;;17.84;98.65;97772.06;5051469;28;20029;-76
2021/08/04 06:19:00;;;;;;;11.15;4.35;;;;;;;17.82;98.81;97769.66;5050224;28;20029;-76
2021/08/04 06:21:26;;;;;;;8.80;4.25;;;;;;;17.84;99.11;97781.16;5051378;28;20523;-76
2021/08/04 06:23:55;;;;;;;8.45;4.05;;;;;;;17.92;98.21;97762.81;5051530;28;20028;-76
2021/08/04 06:26:20;;;;;;;6.65;4.45;;;;;;;17.98;97.58;97756.69;5051371;28;20492;-77
2021/08/04 06:28:48;;;;;;;5.75;3.92;;;;;;;18.22;96.36;97760.59;5051357;28;20522;-76
2021/08/04 06:31:13;;;;;;;8.52;3.88;;;;;;;18.53;94.67;97766.28;5049740;28;20147;-77
2021/08/04 06:33:39;;;;;;;4.72;3.53;;;;;;;18.76;93.04;97761.81;5049775;28;20132;-76
2021/08/04 06:36:04;;;;;;;8.43;4.97;;;;;;;19.00;91.70;97750.59;5051473;28;20045;-77
2021/08/04 06:38:29;;;;;;;8.65;3.40;;;;;;;19.34;89.70;97756.63;5050695;28;20025;-76
2021/08/04 06:40:55;;;;;;;6.30;3.58;;;;;;;19.42;88.97;97752.91;5052777;28;20143;-76
2021/08/04 06:43:22;;;;;;;7.75;3.90;;;;;;;19.51;88.90;97748.00;5059316;28;20047;-77
2021/08/04 06:45:48;;;;;;;10.07;3.58;;;;;;;19.53;89.84;97745.66;5049747;28;20021;-78
2021/08/04 06:48:13;;;;;;;6.60;3.35;;;;;;;19.41;90.98;97745.75;5050927;28;20090;-77
2021/08/04 06:50:39;;;;;;;7.97;4.55;;;;;;;19.29;91.35;97759.69;5051131;28;20399;-76
2021/08/04 06:53:06;;;;;;;7.82;4.60;;;;;;;19.34;90.94;97751.88;5051108;28;20039;-76
2021/08/04 06:55:31;;;;;;;7.10;3.95;;;;;;;19.39;91.87;97748.84;5051195;28;20020;-76
2021/08/04 06:57:56;;;;;;;5.13;4.07;;;;;;;19.17;92.82;97724.50;5050925;28;20017;-76
2021/08/04 07:00:22;;;;;;;9.52;3.92;;;;;;;19.34;92.79;97745.53;5049290;28;20024;-76
2021/08/04 07:02:50;;;;;;;5.55;3.65;;;;;;;19.21;92.47;97730.94;5050826;28;20036;-76
2021/08/04 07:05:19;;;;;;;8.32;4.53;;;;;;;19.16;92.94;97734.78;5050808;28;20024;-76
2021/08/04 07:07:45;;;;;;;5.93;4.40;;;;;;;19.19;92.58;97736.03;5051021;28;20029;-75
2021/08/04 07:10:13;;;;;;;8.05;4.13;;;;;;;19.57;91.02;97757.66;5049088;28;20413;-77
2021/08/04 07:12:39;;;;;;;6.13;4.47;;;;;;;19.65;89.78;97762.19;5049397;28;20116;-76
2021/08/04 07:15:05;;;;;;;8.48;4.40;;;;;;;19.71;89.73;97771.88;5049211;28;20116;-76
2021/08/04 07:17:44;;;;;;;7.78;4.35;;;;;;;20.12;87.81;97793.50;5050564;28;20109;-78
2021/08/04 07:20:10;;;;;;;6.82;4.22;;;;;;;19.94;88.01;97795.06;5049298;28;20112;-75
2021/08/04 07:22:36;;;;;;;10.55;4.25;;;;;;;19.87;89.20;97791.28;5051496;28;20025;-75
2021/08/04 07:25:01;;;;;;;11.05;5.18;;;;;;;19.99;88.25;97797.53;5050451;28;20047;-77
2021/08/04 07:27:26;;;;;;;11.38;4.10;;;;;;;20.10;87.41;97804.16;5049235;28;20488;-76
2021/08/04 07:29:53;;;;;;;6.68;4.55;;;;;;;20.09;87.56;97813.66;5048808;28;20485;-77
2021/08/04 07:32:19;;;;;;;7.28;4.68;;;;;;;20.43;85.27;97806.53;5048939;28;20057;-78
2021/08/04 07:34:44;;;;;;;8.82;4.22;;;;;;;20.34;85.15;97805.94;5049108;28;20029;-78
2021/08/04 07:37:10;;;;;;;10.88;4.70;;;;;;;20.45;84.34;97789.50;5048801;28;20120;-77
2021/08/04 07:39:35;;;;;;;8.30;4.30;;;;;;;20.56;84.22;97790.53;5050309;28;20499;-79
2021/08/04 07:42:01;;;;;;;6.88;4.22;;;;;;;20.66;83.63;97792.72;5048812;28;20130;-78
2021/08/04 07:44:26;;;;;;;7.22;3.83;;;;;;;20.41;84.36;97783.84;5048958;28;20108;-78
2021/08/04 07:46:52;;;;;;;5.53;4.13;;;;;;;20.52;84.37;97784.88;5050030;28;20477;-80
2021/08/04 07:49:17;;;;;;;9.10;4.78;;;;;;;20.89;82.38;97776.94;5051482;28;20028;-79
2021/08/04 07:51:42;;;;;;;5.28;4.15;;;;;;;21.22;81.45;97773.59;5054704;28;20495;-76
2021/08/04 07:54:08;;;;;;;6.40;4.88;;;;;;;21.42;80.17;97783.53;5052891;28;20033;-77
2021/08/04 07:56:33;;;;;;;8.13;4.97;;;;;;;21.31;80.19;97780.53;5054110;28;20025;-78
2021/08/04 07:59:02;;;;;;;8.35;5.03;;;;;;;21.27;79.78;97787.22;5054350;28;20447;-79
2021/08/04 08:01:29;;;;;;;8.32;5.35;;;;;;;21.63;78.86;97795.03;5052808;28;20078;-78
2021/08/04 08:03:55;;;;;;;8.45;4.80;;;;;;;21.20;79.74;97790.69;5059060;28;20055;-78
2021/08/04 08:06:21;;;;;;;5.75;4.10;;;;;;;21.36;79.29;97802.50;5054374;28;20492;-76
2021/08/04 08:08:46;;;;;;;7.65;5.20;;;;;;;21.44;79.95;97806.22;5052727;28;20039;-76
2021/08/04 08:11:12;;;;;;;5.53;4.72;;;;;;;22.06;76.93;97812.47;5053908;28;20033;-77
2021/08/04 08:13:37;;;;;;;4.97;4.03;;;;;;;22.40;75.14;97808.59;5054233;28;20607;-77
2021/08/04 08:16:03;;;;;;;7.90;5.05;;;;;;;22.73;73.43;97807.91;5053895;28;20063;-77
2021/08/04 08:18:28;;;;;;;5.97;4.43;;;;;;;22.66;72.34;97819.78;5053796;28;20030;-79
2021/08/04 08:20:54;;;;;;;6.85;4.38;;;;;;;22.62;73.06;97812.50;5052617;28;20025;-77
2021/08/04 08:23:21;;;;;;;9.38;5.60;;;;;;;22.30;74.18;97812.06;5053786;28;20040;-79
2021/08/04 08:25:46;;;;;;;5.93;4.38;;;;;;;22.16;74.51;97804.28;5052599;28;20431;-77
2021/08/04 08:28:12;;;;;;;10.13;4.15;;;;;;;23.04;71.52;97817.88;5053954;28;20082;-77
2021/08/04 08:30:38;;;;;;;5.13;3.92;;;;;;;24.12;67.57;97820.19;5052177;28;20049;-77
2021/08/04 08:33:04;;;;;;;6.25;3.85;;;;;;;24.90;64.91;97813.09;5054144;28;20052;-77
2021/08/04 08:35:30;;;;;;;9.48;3.95;;;;;;;24.58;65.34;97820.53;5052598;28;20028;-76
2021/08/04 08:37:56;;;;;;;6.72;4.15;;;;;;;23.66;68.57;97807.78;5053999;28;20013;-79
2021/08/04 08:40:21;;;;;;;7.05;4.32;;;;;;;23.66;69.07;97799.41;5052477;28;20082;-78
2021/08/04 08:42:47;;;;;;;6.53;4.30;;;;;;;23.02;70.22;97804.31;5053645;28;20070;-78
2021/08/04 08:45:13;;;;;;;3.92;3.13;;;;;;;23.53;69.43;97801.69;5053928;28;20029;-79
2021/08/04 08:47:40;;;;;;;9.73;4.22;;;;;;;24.99;64.16;97812.78;5053955;28;20025;-77
2021/08/04 08:50:06;;;;;;;6.85;3.85;;;;;;;26.37;60.30;97811.03;5053177;28;20017;-76
2021/08/04 08:52:32;;;;;;;5.93;3.92;;;;;;;27.25;56.54;97818.41;5051893;28;20029;-78
2021/08/04 08:55:03;;;;;;;6.60;4.43;;;;;;;26.76;57.80;97810.13;5053526;28;20032;-77
2021/08/04 08:57:29;;;;;;;8.65;4.85;;;;;;;27.10;57.12;97802.78;5053769;28;20361;-79
2021/08/04 08:59:58;;;;;;;10.93;4.18;;;;;;;27.65;54.72;97808.56;5053563;28;20404;-75
2021/08/04 09:02:25;;;;;;;10.23;4.45;;;;;;;28.58;51.76;97815.03;5052709;28;20182;-77
2021/08/04 09:04:59;;;;;;;6.07;3.08;;;;;;;29.61;48.84;97812.59;5053787;28;20029;-77
2021/08/04 09:07:32;;;;;;;7.75;3.65;;;;;;;30.43;46.70;97828.28;5053231;28;20017;-76
2021/08/04 09:09:57;;;;;;;6.10;2.90;;;;;;;30.80;45.19;97814.66;5053348;28;20049;-79
2021/08/04 09:12:23;;;;;;;6.07;3.25;;;;;;;30.63;45.53;97815.81;5052766;28;20129;-79
2021/08/04 09:14:49;;;;;;;7.03;2.85;;;;;;;31.34;43.92;97825.72;5051232;28;20106;-79
2021/08/04 09:17:16;;;;;;;4.68;2.97;;;;;;;31.47;43.34;97817.38;5052697;28;20499;-77
2021/08/04 09:19:44;;;;;;;4.35;2.72;;;;;;;30.99;43.53;97812.31;5051625;28;20017;-78
2021/08/04 09:22:24;;;;;;;4.85;2.72;;;;;;;31.52;42.20;97814.84;5052884;28;20021;-78
2021/08/04 09:25:08;;;;;;;5.95;2.45;;;;;;;30.45;44.06;97797.59;5051595;28;20025;-79
2021/08/04 09:27:52;;;;;;;2.97;1.70;;;;;;;30.40;44.34;97795.25;5052824;28;20033;-78
2021/08/04 09:30:32;;;;;;;7.70;3.03;;;;;;;30.91;43.18;97794.69;5052551;28;20567;-76
2021/08/04 09:33:17;;;;;;;5.82;1.70;;;;;;;31.39;42.17;97790.50;5051046;28;20096;-78
2021/08/04 09:35:45;;;;;;;;;;;;;;;31.81;41.61;97787.50;5053456;28;20029;-79
2021/08/04 09:38:11;;;;;;;2.70;2.17;;;;;;;30.94;43.35;97779.69;5051381;28;19955;-79
2021/08/04 09:40:36;;;;;;;3.97;2.35;;;;;;;31.87;42.38;97772.81;5050904;28;20063;-77
2021/08/04 09:43:02;;;;;;;5.20;2.72;;;;;;;31.84;42.61;97780.16;5052740;28;20032;-81
2021/08/04 09:45:38;;;;;;;6.60;2.53;;;;;;;32.34;41.84;97780.53;5052480;28;20140;-77
2021/08/04 09:48:08;;;;;;;3.85;2.20;;;;;;;32.48;41.64;97775.75;5052535;28;20021;-77
2021/08/04 09:50:50;;;;;;;2.40;1.95;;;;;;;31.85;42.55;97781.75;5050805;28;20040;-80
2021/08/04 09:53:26;;;;;;;1.90;1.70;;;;;;;32.00;41.40;97779.38;5052073;28;20028;-76
2021/08/04 09:56:10;;;;;;;2.58;1.80;;;;;;;31.77;42.07;97772.63;5052649;28;20029;-76
2021/08/04 09:58:38;;;;;;;4.07;1.67;;;;;;;32.42;41.01;97774.69;5051848;28;20043;-79
2021/08/04 10:01:04;;;;;;;2.40;1.60;;;;;;;29.74;46.58;97764.88;5052056;28;20108;-79
2021/08/04 10:03:32;;;;;;;2.80;1.63;;;;;;;28.69;48.24;97767.88;5052130;28;20040;-79
2021/08/04 10:05:57;;;;;;;4.22;2.25;;;;;;;27.74;51.69;97752.66;5051771;28;20037;-78
2021/08/04 10:08:23;;;;;;;4.25;2.20;;;;;;;27.10;53.37;97753.03;5051694;28;20130;-77
2021/08/04 10:10:54;;;;;;;1.60;1.50;;;;;;;26.17;56.77;97742.53;5051920;28;20046;-77
2021/08/04 10:13:25;;;;;;;3.80;2.45;;;;;;;26.11;57.01;97746.91;5049797;28;20033;-77
2021/08/04 10:15:54;;;;;;;5.78;1.75;;;;;;;25.67;57.96;97738.91;5052259;28;20479;-76
2021/08/04 10:18:25;;;;;;;2.63;1.67;;;;;;;25.43;59.34;97726.47;5056362;28;20025;-79
2021/08/04 10:20:53;;;;;;;2.30;1.80;;;;;;;25.66;59.06;97722.50;5051185;28;20040;-77
2021/08/04 10:23:19;;;;;;;2.50;2.00;;;;;;;25.59;58.47;97730.91;5033905;28;20370;-76
2021/08/04 10:25:46;;;;;;;3.92;1.55;;;;;;;26.31;56.45;97730.47;5051941;28;20475;-79
2021/08/04 10:28:13;;;;;;;4.97;1.45;;;;;;;26.60;55.17;97717.94;5050580;28;20029;-76
2021/08/04 10:30:42;;;;;;;2.63;1.75;;;;;;;27.05;54.88;97733.00;5051320;28;20065;-78
2021/08/04 10:33:08;;;;;;;3.70;1.80;;;;;;;26.82;55.84;97721.47;5050185;28;20036;-79
2021/08/04 10:35:40;;;;;;;2.58;1.65;;;;;;;26.75;56.07;97729.94;5050274;28;20700;-78
2021/08/04 10:38:09;;;;;;;2.80;2.00;;;;;;;27.15;54.93;97734.97;5050353;28;20028;-78
2021/08/04 10:40:35;;;;;;;3.53;2.25;;;;;;;27.23;55.18;97724.47;5033686;28;20558;-76
2021/08/04 10:43:00;;;;;;;2.50;1.90;;;;;;;26.60;55.76;97721.56;5051387;28;20043;-77
2021/08/04 10:45:28;;;;;;;1.95;1.40;;;;;;;26.67;54.87;97728.34;5051687;28;20033;-78
2021/08/04 10:47:57;;;;;;;2.92;1.48;;;;;;;26.77;53.47;97711.47;5050193;28;20029;-76
2021/08/04 10:50:23;;;;;;;3.58;1.70;;;;;;;26.38;54.41;97722.81;5050171;28;20063;-76
2021/08/04 10:52:57;;;;;;;2.90;1.38;;;;;;;26.08;56.72;97711.25;5051469;28;20067;-76
2021/08/04 10:55:24;;;;;;;3.50;1.88;;;;;;;25.72;57.63;97701.31;5051119;28;20423;-78
2021/08/04 10:58:05;;;;;;;1.90;1.60;;;;;;;25.39;58.70;97694.84;5049963;28;20076;-78
2021/08/04 11:00:32;;;;;;;2.97;1.67;;;;;;;25.50;58.71;97701.28;5051867;28;20029;-77
2021/08/04 11:02:58;;;;;;;4.43;1.77;;;;;;;25.46;58.74;97692.06;5049918;28;20043;-78
2021/08/04 11:05:23;;;;;;;3.70;1.90;;;;;;;25.46;59.54;97694.88;5049706;28;20548;-78
2021/08/04 11:08:15;;;;;;;2.53;1.63;;;;;;;26.03;57.51;97694.84;5051669;28;20511;-77
2021/08/04 11:10:43;;;;;;;3.83;1.90;;;;;;;26.72;55.58;97702.69;5051125;28;20021;-78
2021/08/04 11:13:09;;;;;;;2.30;1.73;;;;;;;26.86;54.63;97700.63;5049652;28;20025;-78
2021/08/04 11:15:35;;;;;;;3.90;1.80;;;;;;;27.02;54.67;97700.13;5050049;28;20032;-77
2021/08/04 11:18:10;;;;;;;3.15;1.83;;;;;;;27.06;54.99;97695.31;5049099;28;20059;-78
2021/08/04 11:20:55;;;;;;;2.33;1.70;;;;;;;27.08;53.45;97687.25;5049672;28;20358;-78
2021/08/04 11:23:46;;;;;;;2.95;2.28;;;;;;;27.06;53.47;97695.31;5051205;28;20013;-77
2021/08/04 11:26:23;;;;;;;2.00;1.80;;;;;;;27.24;53.19;97692.38;5051185;28;20133;-78
2021/08/04 11:28:48;;;;;;;;;;;;;;;27.70;51.54;97683.59;5051081;28;20025;-77
2021/08/04 11:31:13;;;;;;;5.17;1.50;;;;;;;27.37;51.88;97679.44;5050039;28;19920;-77
2021/08/04 11:33:39;;;;;;;4.95;1.75;;;;;;;27.07;52.38;97675.22;5051784;28;20365;-78